• Join FlightAware (Why Join?)
  • Login
  • US Flag 
06:44AM EDT


 

Airport Tracker/Info


-or-


 

Live Flight TrackerFlight Track Log ✈ ABX803 ✈ 06-Sep-2013 ✈ KCVG - KLAX

Flight Track Log - Related Links

Times and Time Zones

All times are in EDT time to prevent confusion due to time zone crossing. See the ABX803 flight status page for this flight to view local times or setup timezone preferences in your user account.

Time Position Orientation Groundspeed Altitude Reporting Facility
EDT Latitude Longitude Course Direction KTS MPH feet Rate Location/Type
05:08AM 39.0450 -84.7310 272° West 195 224 2,700  Level FlightAware
05:09AM 39.0450 -84.7530 270° West 218 251 3,000 1,320 Climbing FlightAware
05:09AM 39.0460 -84.7780 273° West 238 274 3,500 2,220 Climbing FlightAware
05:10AM 39.0450 -84.8170 268° West 261 300 5,300 2,400 Climbing FlightAware
05:10AM 39.0460 -84.8540 272° West 263 303 5,700 600 Climbing FlightAware
05:10AM 39.0460 -84.8890 270° West 263 303 5,700 1,620 Level FlightAware
05:11AM 39.0460 -84.8900 270° West 271 312 7,400 2,520 Climbing FlightAware
05:14AM 39.1710 -85.3000 292° West 383 441 15,000 1,980 Climbing FlightAware
05:15AM 39.1970 -85.3720 295° West 383 441 15,000  Level FlightAware
05:15AM 39.2200 -85.4360 295° West 383 441 15,000  Level FlightAware
05:16AM 39.2420 -85.4990 294° West 383 441 15,000  Level FlightAware
05:16AM 39.2650 -85.5630 295° West 383 441 15,000 4,740 Level FlightAware
05:17AM 39.3790 -85.7030 317° Northwest 445 512 21,800 6,540 Climbing FlightAware
05:18AM 39.3840 -85.7430 279° West 452 520 22,200 1,800 Climbing FlightAware
05:18AM 39.3840 -85.8340 270° West 458 527 23,300 1,800 Climbing FlightAware
05:19AM 39.3830 -85.9380 269° West 469 540 24,300 1,560 Climbing FlightAware
05:19AM 39.3820 -86.0330 269° West 476 548 25,200 1,500 Climbing FlightAware
05:20AM 39.3870 -86.1740 273° West 482 555 26,400 1,440 Climbing FlightAware
05:21AM 39.3970 -86.2790 277° West 485 558 27,300 1,680 Climbing FlightAware
05:21AM 39.4030 -86.3710 275° West 484 557 28,400 2,100 Climbing FlightAware
05:22AM 39.3980 -86.4230 263° West 487 560 29,100 1,980 Climbing FlightAware
05:22AM 39.3660 -86.5270 248° West 480 552 30,300 1,860 Climbing FlightAware
05:23AM 39.3460 -86.6280 256° West 476 548 31,400 1,380 Climbing FlightAware
05:23AM 39.3340 -86.7270 261° West 470 541 32,000 600 Climbing FlightAware
05:24AM 39.3320 -86.8170 268° West 469 540 32,100 480 Climbing FlightAware
05:25AM 39.3310 -86.9200 269° West 469 540 32,600 900 Climbing FlightAware
05:25AM 39.3310 -87.0130 270° West 470 541 33,200 1,080 Climbing FlightAware
05:26AM 39.3320 -87.1180 271° West 468 539 33,900 660 Climbing FlightAware
05:26AM 39.3320 -87.2080 270° West 467 537 34,000 60 Climbing FlightAware
05:27AM 39.3320 -87.3100 270° West 457 526 34,000  Level FlightAware
05:27AM 39.3330 -87.4030 271° West 455 524 34,000  Level FlightAware
05:28AM 39.3340 -87.4960 271° West 455 524 34,000  Level FlightAware
05:29AM 39.3350 -87.5830 271° West 457 526 34,000  Level FlightAware
05:29AM 39.3360 -87.6930 271° West 458 527 34,000  Level FlightAware
05:30AM 39.3370 -87.7800 271° West 458 527 34,000  Level FlightAware
05:30AM 39.3380 -87.8820 271° West 458 527 34,000  Level FlightAware
05:31AM 39.3380 -87.9740 270° West 459 528 34,000  Level FlightAware
05:32AM 39.3390 -88.0730 271° West 459 528 34,000  Level FlightAware
05:32AM 39.3370 -88.1690 268° West 460 529 34,000  Level FlightAware
05:33AM 39.3340 -88.2860 268° West 460 529 34,000  Level FlightAware
05:33AM 39.3310 -88.3800 268° West 460 529 34,000  Level FlightAware
05:34AM 39.3280 -88.4820 268° West 460 529 34,000  Level FlightAware
05:34AM 39.3250 -88.5600 267° West 460 529 34,000  Level FlightAware
05:35AM 39.3220 -88.6430 267° West 460 529 34,000  Level FlightAware
05:36AM 39.3200 -88.7420 269° West 460 529 34,000  Level FlightAware
05:36AM 39.3160 -88.8450 267° West 460 529 34,000  Level FlightAware
05:37AM 39.3140 -88.9320 268° West 460 529 34,000  Level FlightAware
05:37AM 39.3110 -89.0340 268° West 459 528 34,000  Level FlightAware
05:38AM 39.3080 -89.1250 268° West 459 528 34,000  Level FlightAware
05:39AM 39.3050 -89.2190 268° West 459 528 34,000  Level FlightAware
05:39AM 39.3020 -89.3170 268° West 459 528 34,000  Level FlightAware
05:40AM 39.2980 -89.4080 267° West 458 527 34,000  Level FlightAware
05:40AM 39.2940 -89.5320 268° West 458 527 34,000  Level FlightAware
05:41AM 39.2910 -89.6170 267° West 458 527 34,000  Level FlightAware
05:42AM 39.2860 -89.7260 267° West 457 526 34,000  Level FlightAware
05:42AM 39.2830 -89.8190 268° West 456 525 34,000  Level FlightAware
05:43AM 39.2790 -89.8990 266° West 455 524 34,000  Level FlightAware
05:43AM 39.2750 -90.0120 267° West 453 521 34,000  Level FlightAware
05:44AM 39.2710 -90.1040 267° West 452 520 34,000  Level FlightAware
05:44AM 39.2670 -90.1910 267° West 452 520 34,000  Level FlightAware
05:45AM 39.2630 -90.2890 267° West 452 520 34,000  Level FlightAware
05:46AM 39.2580 -90.3840 266° West 452 520 34,000  Level FlightAware
05:46AM 39.2540 -90.4700 267° West 451 519 34,000  Level FlightAware
05:47AM 39.2490 -90.5720 266° West 451 519 34,000  Level FlightAware
05:47AM 39.2450 -90.6680 267° West 451 519 34,000  Level FlightAware
05:48AM 39.2400 -90.7650 266° West 451 519 34,000  Level FlightAware
05:49AM 39.2350 -90.8620 266° West 451 519 34,000  Level FlightAware
05:49AM 39.2300 -90.9570 266° West 453 521 34,000  Level FlightAware
05:50AM 39.2250 -91.0430 266° West 453 521 34,000  Level FlightAware
05:50AM 39.2190 -91.1390 265° West 454 522 34,000  Level FlightAware
05:51AM 39.2130 -91.2370 266° West 454 522 34,000  Level FlightAware
05:52AM 39.2070 -91.3330 265° West 455 524 34,000  Level FlightAware
05:52AM 39.2020 -91.4250 266° West 455 524 34,000  Level FlightAware
05:53AM 39.1960 -91.5240 266° West 456 525 34,000  Level FlightAware
05:53AM 39.1910 -91.6120 266° West 456 525 34,000  Level FlightAware
05:54AM 39.1850 -91.6990 265° West 456 525 34,000  Level FlightAware
05:54AM 39.1790 -91.8020 266° West 457 526 34,000  Level FlightAware
05:55AM 39.1730 -91.9010 266° West 458 527 34,000  Level FlightAware
05:56AM 39.1660 -92.0010 265° West 459 528 34,000  Level FlightAware
05:56AM 39.1610 -92.0840 266° West 460 529 34,000  Level FlightAware
05:57AM 39.1550 -92.1840 266° West 461 531 34,000  Level FlightAware
05:57AM 39.1480 -92.2850 265° West 462 532 34,000  Level FlightAware
05:58AM 39.1420 -92.3750 265° West 463 533 34,000  Level FlightAware
05:59AM 39.1350 -92.4740 265° West 462 532 34,000  Level FlightAware
05:59AM 39.1280 -92.5750 265° West 463 533 34,000  Level FlightAware
06:00AM 39.1220 -92.6590 265° West 462 532 34,000  Level FlightAware
06:00AM 39.1150 -92.7600 265° West 463 533 34,000  Level FlightAware
06:01AM 39.1080 -92.8560 265° West 463 533 34,000  Level FlightAware
06:01AM 39.1010 -92.9490 264° West 463 533 34,000  Level FlightAware
06:02AM 39.0940 -93.0440 265° West 463 533 34,000  Level FlightAware
06:03AM 39.0860 -93.1450 264° West 463 533 34,000  Level FlightAware
06:03AM 39.0790 -93.2320 264° West 462 532 34,000  Level FlightAware
06:04AM 39.0710 -93.3320 264° West 462 532 34,000  Level FlightAware
06:04AM 39.0630 -93.4330 264° West 461 531 34,000  Level FlightAware
06:05AM 39.0550 -93.5320 264° West 461 531 34,000  Level FlightAware
06:05AM 39.0480 -93.6200 264° West 460 529 34,000  Level FlightAware
06:06AM 39.0400 -93.7150 264° West 459 528 34,000  Level FlightAware
06:07AM 39.0320 -93.8130 264° West 458 527 34,000  Level FlightAware
06:07AM 39.0242 -93.9036 264° West 458 527 34,000  Level FlightAware ADS-B
06:08AM 39.0158 -94.0005 264° West 457 526 34,000  Level FlightAware ADS-B
06:08AM 39.0086 -94.0839 264° West 456 525 34,000  Level FlightAware ADS-B
06:09AM 39.0009 -94.1718 264° West 456 525 34,000  Level FlightAware ADS-B
06:10AM 38.9910 -94.2820 263° West 455 524 34,000  Level FlightAware
06:10AM 38.9853 -94.3456 263° West 456 525 34,000  Level FlightAware ADS-B
06:10AM 38.9779 -94.4273 263° West 457 526 34,000  Level FlightAware ADS-B
06:11AM 38.9695 -94.5196 263° West 458 527 34,000  Level FlightAware ADS-B
06:12AM 38.9619 -94.6010 263° West 458 527 34,000  Level FlightAware ADS-B
06:12AM 38.9544 -94.6834 263° West 459 528 34,000  Level FlightAware ADS-B
06:13AM 38.9467 -94.7649 263° West 460 529 34,000  Level FlightAware ADS-B
06:13AM 38.9389 -94.8465 263° West 461 531 34,000  Level FlightAware ADS-B
06:14AM 38.9310 -94.9280 263° West 461 531 34,000  Level FlightAware ADS-B
06:14AM 38.9231 -95.0097 263° West 463 533 34,000  Level FlightAware ADS-B
06:15AM 38.9140 -95.1022 263° West 464 534 34,000  Level FlightAware ADS-B
06:15AM 38.9022 -95.2209 263° West 464 534 34,000  Level FlightAware ADS-B
06:16AM 38.8880 -95.3600 263° West 465 535 34,000  Level FlightAware
06:17AM 38.8828 -95.4136 263° West 467 537 34,000  Level FlightAware ADS-B
06:17AM 38.8742 -95.4961 262° West 468 539 34,000  Level FlightAware ADS-B
06:18AM 38.8654 -95.5789 262° West 469 540 34,000  Level FlightAware ADS-B
06:18AM 38.8555 -95.6746 262° West 470 541 34,000  Level FlightAware ADS-B
06:19AM 38.8467 -95.7586 262° West 471 542 34,000  Level FlightAware ADS-B
06:19AM 38.8378 -95.8428 262° West 473 544 34,000  Level FlightAware ADS-B
06:20AM 38.8282 -95.9320 262° West 474 545 34,000  Level FlightAware ADS-B
06:20AM 38.8193 -96.0159 262° West 475 547 34,000  Level FlightAware ADS-B
06:21AM 38.8095 -96.1057 262° West 476 548 34,000  Level FlightAware ADS-B
06:21AM 38.7999 -96.1939 262° West 478 550 34,000  Level FlightAware ADS-B
06:22AM 38.7908 -96.2781 262° West 479 551 34,000  Level FlightAware ADS-B
06:22AM 38.7815 -96.3632 262° West 479 551 34,000  Level FlightAware ADS-B
06:23AM 38.7720 -96.4479 262° West 479 551 34,000  Level FlightAware ADS-B
06:23AM 38.7626 -96.5330 262° West 480 552 34,000  Level FlightAware ADS-B
06:24AM 38.7530 -96.6187 262° West 480 552 34,000  Level FlightAware ADS-B
06:24AM 38.7410 -96.7260 262° West 479 551 34,000  Level FlightAware
06:25AM 38.7324 -96.8004 262° West 479 551 34,000  Level FlightAware ADS-B
06:25AM 38.7212 -96.8987 262° West 479 551 34,000  Level FlightAware ADS-B
06:26AM 38.7113 -96.9857 262° West 480 552 34,000  Level FlightAware ADS-B
06:26AM 38.7013 -97.0706 261° West 479 551 34,000  Level FlightAware ADS-B
06:27AM 38.6915 -97.1548 262° West 479 551 34,000  Level FlightAware ADS-B
06:27AM 38.6816 -97.2398 262° West 478 550 34,000  Level FlightAware ADS-B
06:28AM 38.6720 -97.3239 262° West 478 550 34,000  Level FlightAware ADS-B
06:28AM 38.6618 -97.4088 261° West 478 550 34,000  Level FlightAware ADS-B
06:29AM 38.6519 -97.4931 261° West 478 550 34,000  Level FlightAware ADS-B
06:29AM 38.6418 -97.5771 261° West 478 550 34,000  Level FlightAware ADS-B
06:30AM 38.6320 -97.6619 262° West 476 548 34,000  Level FlightAware ADS-B
06:30AM 38.6219 -97.7454 261° West 475 547 34,000  Level FlightAware ADS-B
06:31AM 38.6088 -97.8524 261° West 473 544 34,000  Level FlightAware ADS-B
06:32AM 38.5982 -97.9395 261° West 470 541 34,000  Level FlightAware ADS-B
06:32AM 38.5810 -98.0780 261° West 466 536 34,000  Level FlightAware
06:33AM 38.5690 -98.1810 262° West 465 535 34,000  Level FlightAware
06:34AM 38.5560 -98.2800 260° West 464 534 34,000  Level FlightAware
06:34AM 38.5450 -98.3700 261° West 463 533 34,000  Level FlightAware
06:35AM 38.5330 -98.4640 261° West 462 532 34,000  Level FlightAware
06:36AM 38.5160 -98.5990 261° West 461 531 34,000  Level FlightAware
06:36AM 38.5040 -98.6850 260° West 461 531 34,000  Level FlightAware
06:37AM 38.4930 -98.7670 260° West 461 531 34,000  Level FlightAware
06:38AM 38.4810 -98.8520 260° West 461 531 34,000  Level FlightAware
06:38AM 38.4700 -98.9340 260° West 461 531 34,000  Level FlightAware
06:39AM 38.4510 -99.1040 262° West 465 535 34,000  Level FlightAware
06:39AM 38.4390 -99.1980 261° West 467 537 34,000  Level FlightAware
06:40AM 38.4260 -99.2950 260° West 468 539 34,000  Level FlightAware
06:41AM 38.4140 -99.3790 260° West 468 539 34,000  Level FlightAware
06:42AM 38.3940 -99.5270 260° West 473 544 34,000  Level FlightAware
06:42AM 38.3810 -99.6130 259° West 473 544 34,000  Level FlightAware
06:43AM 38.3680 -99.6970 259° West 473 544 34,000  Level FlightAware
06:43AM 38.3550 -99.7830 259° West 473 544 34,000  Level FlightAware
06:44AM 38.3420 -99.8670 259° West 473 544 34,000  Level FlightAware
06:45AM 38.3290 -99.9530 259° West 473 544 34,000  Level FlightAware
06:45AM 38.3160 -100.0370 259° West 473 544 34,000  Level FlightAware
06:46AM 38.3030 -100.1250 259° West 473 544 34,000  Level FlightAware
06:46AM 38.2900 -100.2090 259° West 473 544 34,000  Level FlightAware
06:47AM 38.2770 -100.2930 259° West 473 544 34,000  Level FlightAware
06:48AM 38.2640 -100.3810 259° West 473 544 34,000  Level FlightAware
06:48AM 38.2510 -100.4650 259° West 473 544 34,000  Level FlightAware
06:49AM 38.2390 -100.5440 259° West 473 544 34,000  Level FlightAware
06:49AM 38.2260 -100.6280 259° West 473 544 34,000  Level FlightAware
06:50AM 38.2130 -100.7110 259° West 473 544 34,000  Level FlightAware
06:51AM 38.2000 -100.7950 259° West 473 544 34,000  Level FlightAware
06:52AM 38.1653 -101.1664 259° West 466 536 34,000  Level Denver Center
06:53AM 38.1392 -101.3469 260° West 469 540 34,000  Level Denver Center
06:54AM 38.1167 -101.5014 260° West 467 537 34,000  Level Denver Center
06:55AM 38.0936 -101.6558 259° West 468 539 34,000  Level Denver Center
06:56AM 38.0697 -101.8108 259° West 470 541 34,000  Level Denver Center
06:57AM 38.0419 -101.9919 259° West 470 541 34,000  Level Denver Center
06:58AM 38.0186 -102.1478 259° West 472 543 34,000  Level Denver Center
06:59AM 37.9931 -102.3033 258° West 471 542 34,000  Level Denver Center
07:00AM 37.9681 -102.4667 259° West 474 545 34,000  Level Denver Center
07:01AM 37.9367 -102.6506 258° West 479 551 34,000  Level Denver Center
07:02AM 37.9125 -102.8058 259° West 472 543 34,000  Level Denver Center
07:03AM 37.8872 -102.9625 258° West 474 545 34,000  Level Denver Center
07:04AM 37.8594 -103.1183 257° West 476 548 34,000  Level Denver Center
07:05AM 37.8289 -103.2994 258° West 472 543 34,000  Level Denver Center
07:06AM 37.8014 -103.4553 257° West 474 545 34,000  Level Denver Center
07:07AM 37.7747 -103.6094 258° West 471 542 34,000  Level Denver Center
07:08AM 37.7453 -103.7903 258° West 473 544 34,000  Level Denver Center
07:09AM 37.7208 -103.9450 259° West 474 545 34,000  Level Denver Center
07:10AM 37.6944 -104.0994 258° West 478 550 34,000  Level Denver Center
07:11AM 37.6628 -104.2794 258° West 478 550 34,000  Level Denver Center
07:12AM 37.6358 -104.4350 258° West 477 549 34,000  Level Denver Center
07:13AM 37.6078 -104.5903 257° West 476 548 34,000  Level Denver Center
07:14AM 37.5767 -104.7706 258° West 474 545 34,000  Level Denver Center
07:15AM 37.5478 -104.9258 257° West 475 547 34,000  Level Denver Center
07:16AM 37.5200 -105.0806 257° West 473 544 34,000  Level Denver Center
07:17AM 37.4919 -105.2356 257° West 474 545 34,000  Level Denver Center
07:18AM 37.4578 -105.4178 257° West 477 549 34,000  Level Denver Center
07:19AM 37.4278 -105.5708 256° West 474 545 34,000  Level Denver Center
07:20AM 37.3983 -105.7278 257° West 477 549 34,000  Level Denver Center
07:25AM 37.2270 -106.6790 257° West 479 551 34,000  Level FlightAware
07:26AM 37.2080 -106.7720 256° West 479 551 34,000  Level FlightAware
07:27AM 37.1890 -106.8650 256° West 479 551 34,000  Level FlightAware
07:27AM 37.1740 -106.9480 257° West 479 551 34,000  Level FlightAware
07:28AM 37.1530 -107.0550 256° West 481 554 34,000  Level FlightAware
07:28AM 37.1350 -107.1490 257° West 481 554 34,000  Level FlightAware
07:29AM 37.1190 -107.2300 256° West 481 554 34,000  Level FlightAware
07:30AM 37.0980 -107.3340 256° West 481 554 34,000  Level FlightAware
07:30AM 37.0780 -107.4330 256° West 482 555 34,000  Level FlightAware
07:31AM 37.0580 -107.5280 255° West 482 555 34,000  Level FlightAware
07:31AM 37.0350 -107.6370 255° West 482 555 34,000  Level FlightAware
07:32AM 37.0150 -107.7320 255° West 483 556 34,000  Level FlightAware
07:33AM 36.9950 -107.8250 255° West 482 555 34,000  Level FlightAware
07:33AM 36.9740 -107.9190 254° West 482 555 34,000  Level FlightAware
07:34AM 36.9540 -108.0110 255° West 482 555 34,000  Level FlightAware
07:34AM 36.9330 -108.1080 255° West 482 555 34,000  Level FlightAware
07:35AM 36.9130 -108.2020 255° West 482 555 34,000  Level FlightAware
07:35AM 36.8920 -108.2960 254° West 481 554 34,000  Level FlightAware
07:36AM 36.8720 -108.3890 255° West 481 554 34,000  Level FlightAware
07:37AM 36.8510 -108.4830 254° West 480 552 34,000  Level FlightAware
07:37AM 36.8300 -108.5750 254° West 480 552 34,000  Level FlightAware
07:38AM 36.8090 -108.6690 254° West 479 551 34,000  Level FlightAware
07:38AM 36.7890 -108.7600 255° West 478 550 34,000  Level FlightAware
07:39AM 36.7690 -108.8450 254° West 479 551 34,000  Level FlightAware
07:40AM 36.7500 -108.9290 254° West 479 551 34,000  Level FlightAware
07:40AM 36.7310 -109.0100 254° West 479 551 34,000  Level FlightAware
07:41AM 36.7130 -109.0920 255° West 479 551 34,000  Level FlightAware
07:41AM 36.6940 -109.1730 254° West 479 551 34,000  Level FlightAware
07:42AM 36.6750 -109.2570 254° West 479 551 34,000  Level FlightAware
07:43AM 36.6560 -109.3380 254° West 479 551 34,000  Level FlightAware
07:43AM 36.6370 -109.4190 254° West 479 551 34,000  Level FlightAware
07:44AM 36.6190 -109.5000 255° West 479 551 34,000  Level FlightAware
07:44AM 36.6000 -109.5820 254° West 479 551 34,000  Level FlightAware
07:45AM 36.5810 -109.6630 254° West 479 551 34,000  Level FlightAware
07:46AM 36.5630 -109.7440 255° West 479 551 34,000  Level FlightAware
07:46AM 36.5440 -109.8250 254° West 479 551 34,000  Level FlightAware
07:47AM 36.5250 -109.9060 254° West 479 551 34,000  Level FlightAware
07:47AM 36.5070 -109.9870 255° West 479 551 34,000  Level FlightAware
07:48AM 36.4290 -110.2890 252° West 479 551 34,000  Level FlightAware
07:49AM 36.4060 -110.3830 253° West 478 550 34,000  Level FlightAware
07:49AM 36.3830 -110.4790 253° West 478 550 34,000  Level FlightAware
07:50AM 36.3630 -110.5630 254° West 479 551 34,000  Level FlightAware
07:50AM 36.3390 -110.6630 253° West 478 550 34,000  Level FlightAware
07:51AM 36.3180 -110.7460 253° West 477 549 34,000  Level FlightAware
07:52AM 36.2960 -110.8400 254° West 476 548 34,000  Level FlightAware
07:52AM 36.2720 -110.9350 253° West 475 547 34,000  Level FlightAware
07:53AM 36.2520 -111.0170 253° West 476 548 34,000  Level FlightAware
07:53AM 36.2290 -111.1120 253° West 476 548 34,000  Level FlightAware
07:54AM 36.2060 -111.2050 253° West 476 548 34,000  Level FlightAware
07:54AM 36.1830 -111.3000 253° West 475 547 34,000  Level FlightAware
07:55AM 36.1620 -111.3820 252° West 475 547 34,000  Level FlightAware
07:56AM 36.1390 -111.4750 253° West 475 547 34,000  Level FlightAware
07:56AM 36.1150 -111.5710 253° West 474 545 34,000  Level FlightAware
07:57AM 36.0940 -111.6580 253° West 476 548 34,000  Level FlightAware
07:57AM 36.0700 -111.7460 251° West 475 547 34,000  Level FlightAware
07:58AM 36.0420 -111.8370 249° West 475 547 34,000  Level FlightAware
07:59AM 36.0110 -111.9280 247° West 473 544 34,000  Level FlightAware
07:59AM 35.9810 -112.0170 247° West 473 544 34,000  Level FlightAware
08:00AM 35.9510 -112.1030 247° West 472 543 34,000  Level FlightAware
08:00AM 35.9230 -112.1850 247° West 472 543 34,000  Level FlightAware
08:01AM 35.8940 -112.2690 247° West 472 543 34,000  Level FlightAware
08:01AM 35.8610 -112.3630 247° West 472 543 34,000  Level FlightAware
08:02AM 35.8340 -112.4420 247° West 473 544 34,000  Level FlightAware
08:03AM 35.8020 -112.5310 246° West 472 543 34,000  Level FlightAware
08:03AM 35.7710 -112.6200 247° West 471 542 34,000  Level FlightAware
08:04AM 35.7400 -112.7090 247° West 469 540 34,000  Level FlightAware
08:04AM 35.7120 -112.7890 247° West 469 540 34,000  Level FlightAware
08:05AM 35.6790 -112.8810 246° West 468 539 34,000  Level FlightAware
08:05AM 35.6520 -112.9590 247° West 466 536 34,000  Level FlightAware
08:06AM 35.6220 -113.0450 247° West 465 535 34,000  Level FlightAware
08:07AM 35.5920 -113.1340 248° West 464 534 34,000  Level FlightAware
08:07AM 35.5620 -113.2210 247° West 463 533 34,000  Level FlightAware
08:08AM 35.5350 -113.2990 247° West 462 532 34,000  Level FlightAware
08:08AM 35.5040 -113.3850 246° West 463 533 34,000  Level FlightAware
08:09AM 35.4740 -113.4720 247° West 463 533 34,000  Level FlightAware
08:10AM 35.4430 -113.5580 246° West 462 532 34,000  Level FlightAware
08:10AM 35.4160 -113.6340 246° West 460 529 34,000  Level FlightAware
08:11AM 35.3860 -113.7190 247° West 461 531 34,000  Level FlightAware
08:11AM 35.3490 -113.8220 246° West 460 529 34,000  Level FlightAware
08:12AM 35.3200 -113.9020 246° West 459 528 34,000  Level FlightAware
08:13AM 35.2900 -113.9840 246° West 458 527 34,000  Level FlightAware
08:13AM 35.2570 -114.0750 246° West 458 527 34,000  Level FlightAware
08:14AM 35.2290 -114.1510 246° West 458 527 34,000  Level FlightAware
08:14AM 35.2000 -114.2330 247° West 460 529 34,000  Level FlightAware
08:15AM 35.1680 -114.3240 247° West 462 532 34,000  Level FlightAware
08:15AM 35.1420 -114.3980 247° West 462 532 34,000  Level FlightAware
08:16AM 35.1100 -114.4900 247° West 464 534 34,000  Level FlightAware
08:17AM 35.0800 -114.5730 246° West 464 534 34,000  Level FlightAware
08:17AM 35.0480 -114.6630 247° West 465 535 34,000  Level FlightAware
08:18AM 35.0200 -114.7410 246° West 467 537 34,000  Level FlightAware
08:18AM 34.9890 -114.8250 246° West 466 536 34,000  Level FlightAware
08:19AM 34.9570 -114.9140 246° West 466 536 34,000  Level FlightAware
08:20AM 34.9280 -114.9930 246° West 465 535 34,000  Level FlightAware
08:20AM 34.8960 -115.0810 246° West 465 535 34,000  Level FlightAware
08:21AM 34.8650 -115.1640 246° West 463 533 34,000  Level FlightAware
08:21AM 34.8360 -115.2420 246° West 462 532 34,000  Level FlightAware
08:22AM 34.8040 -115.3280 246° West 461 531 34,000  Level FlightAware
08:23AM 34.7750 -115.4050 245° Southwest 461 531 34,000  Level FlightAware
08:23AM 34.7400 -115.4980 245° Southwest 461 531 34,000  Level FlightAware
08:24AM 34.7110 -115.5760 246° West 461 531 34,000  Level FlightAware
08:24AM 34.6800 -115.6570 245° Southwest 460 529 34,000  Level FlightAware
08:25AM 34.6440 -115.7560 246° West 461 531 34,000  Level FlightAware
08:26AM 34.6130 -115.8350 245° Southwest 461 531 34,000  Level FlightAware
08:26AM 34.5780 -115.9270 245° Southwest 461 531 34,000  Level FlightAware
08:27AM 34.5480 -116.0040 245° Southwest 462 532 34,000  Level FlightAware
08:27AM 34.5170 -116.0850 245° Southwest 463 533 34,000  Level FlightAware
08:28AM 34.4850 -116.1680 245° Southwest 464 534 34,000  Level FlightAware
08:29AM 34.4510 -116.2550 245° Southwest 465 535 34,000 -180 Level FlightAware
08:29AM 34.4200 -116.3360 245° Southwest 469 540 33,800 -1,320 Descending FlightAware
08:30AM 34.3870 -116.4190 244° Southwest 471 542 32,500 -2,940 Descending FlightAware
08:30AM 34.3550 -116.5020 245° Southwest 475 547 30,400 -3,180 Descending FlightAware
08:31AM 34.3200 -116.5900 244° Southwest 468 539 28,700 -2,700 Descending FlightAware
08:31AM 34.2900 -116.6670 245° Southwest 460 529 27,300 -2,640 Descending FlightAware
08:32AM 34.2590 -116.7470 245° Southwest 451 519 25,800 -2,640 Descending FlightAware
08:33AM 34.2270 -116.8280 244° Southwest 440 506 24,200 -2,580 Descending FlightAware
08:33AM 34.1980 -116.9000 244° Southwest 431 496 22,900 -2,400 Descending FlightAware
08:34AM 34.1680 -116.9770 245° Southwest 423 487 21,400 -2,640 Descending FlightAware
08:34AM 34.1380 -117.0540 245° Southwest 415 478 19,800 -2,280 Descending FlightAware
08:35AM 34.1080 -117.1290 244° Southwest 399 459 18,700 -1,440 Descending FlightAware
08:35AM 34.0810 -117.1890 241° Southwest 391 450 18,200 -1,020 Descending FlightAware
08:36AM 34.0590 -117.2650 251° West 393 452 17,600 -1,020 Descending FlightAware
08:37AM 34.0520 -117.3420 264° West 396 456 17,000 -1,080 Descending FlightAware
08:37AM 34.0470 -117.4020 264° West 392 451 16,500 -1,020 Descending FlightAware
08:38AM 34.0410 -117.4780 265° West 386 444 15,900 -1,080 Descending FlightAware
08:38AM 34.0340 -117.5580 264° West 383 441 15,200 -1,080 Descending FlightAware
08:39AM 34.0280 -117.6250 264° West 380 437 14,700 -840 Descending FlightAware
08:39AM 34.0210 -117.7050 264° West 381 438 14,300 -600 Descending FlightAware
08:40AM 34.0140 -117.7800 264° West 381 438 14,000 -720 Descending FlightAware
08:41AM 34.0110 -117.8490 267° West 377 434 13,500 -1,080 Descending FlightAware
08:41AM 34.0130 -117.9250 272° West 371 427 12,800 -1,200 Descending FlightAware
08:42AM 34.0160 -117.9970 273° West 351 404 12,100 -1,140 Descending FlightAware
08:42AM 34.0180 -118.0660 272° West 331 381 11,500 -1,080 Descending FlightAware
08:43AM 34.0200 -118.1240 272° West 323 372 10,900 -900 Descending FlightAware
08:44AM 34.0220 -118.1860 272° West 306 352 10,500 -660 Descending FlightAware
08:44AM 34.0230 -118.2490 271° West 280 322 10,100 -1,140 Descending FlightAware
08:45AM 34.0240 -118.2790 272° West 273 314 9,400 -2,280 Descending FlightAware
08:45AM 34.0250 -118.3090 272° West 273 314 8,600 -2,220 Descending FlightAware
08:45AM 34.0260 -118.3350 273° West 273 314 8,000 -1,500 Descending FlightAware
08:46AM 34.0270 -118.3710 272° West 269 310 7,600 -1,200 Descending FlightAware
08:46AM 34.0280 -118.4060 272° West 266 306 7,100 -660 Descending FlightAware
08:46AM 34.0290 -118.4430 272° West 248 285 7,100 -300 Level FlightAware
08:47AM 34.0300 -118.4650 273° West 243 280 6,900 -1,140 Descending FlightAware
08:47AM 34.0320 -118.4930 275° West 240 276 6,400 -1,620 Descending FlightAware
08:47AM 34.0330 -118.5200 273° West 240 276 5,800 -1,560 Descending FlightAware
08:48AM 34.0350 -118.5450 276° West 240 276 5,400 -1,080 Descending FlightAware
08:48AM 34.0370 -118.5730 275° West 239 275 5,100 -600 Descending FlightAware
08:48AM 34.0380 -118.6030 272° West 238 274 5,000 -600 Descending FlightAware
08:49AM 34.0360 -118.6150 259° West 235 270 4,800 -1,140 Descending FlightAware
08:49AM 34.0330 -118.6220 243° Southwest 233 268 4,700 -1,140 Descending FlightAware
08:49AM 34.0290 -118.6260 220° Southwest 231 266 4,600 -600 Descending FlightAware
08:49AM 34.0240 -118.6310 220° Southwest 227 261 4,600 -1,080 Level FlightAware
08:49AM 34.0130 -118.6350 197° South 224 258 4,300 -1,440 Descending FlightAware
08:49AM 34.0060 -118.6360 187° South 225 259 4,200 -1,320 Descending FlightAware
08:49AM 33.9850 -118.6310 169° South 222 255 3,700 -1,380 Descending FlightAware
08:50AM 33.9670 -118.6240 162° South 217 250 3,300 -1,440 Descending FlightAware
08:50AM 33.9590 -118.6170 144° Southeast 217 250 3,000 -480 Descending FlightAware
08:50AM 33.9410 -118.5990 140° Southeast 217 250 3,000 -1,380 Level FlightAware
08:51AM 33.9490 -118.5620 75° East 194 223 1,900 -1,380 Descending FlightAware
08:51AM 33.9510 -118.5390 84° East 194 223 1,900  Level FlightAware
08:51AM 33.9530 -118.5210 82° East 168 193 1,900 -480 Level FlightAware
08:52AM 33.9550 -118.5020 83° East 165 190 1,600 -780 Descending FlightAware
08:52AM 33.9570 -118.4730 85° East 145 167 1,200 -840 Descending FlightAware
08:53AM 33.9590 -118.4570 81° East 140 161 900 -780 Descending FlightAware
08:53AM 33.9600 -118.4420 85° East 143 165 700 -780 Descending FlightAware
08:53AM 33.9620 -118.4260 81° East 140 161 400 -420 Descending FlightAware
08:54AM 33.9650 -118.3970 83° East 136 157 300 -180 Descending FlightAware